Tilakkhana — 2DSZ8 — position and weather

sailwx.info

Track history (hours):
 
Tides and Currents Weather Stations Pressure Air Temp Water Temp Dewpoint Dewpoint Depression Visibility Wind Speed Wind Dir Waves Ship Positions

Tilakkhana

Last reported at 2018-Jun-11 16:13 UTC. Time now 2018-Jun-25 17:44 UTC.
Position N 39°34' E 002°38'.
Warning: this ship's position is 14 days out of date.

Length 24 m.

Type: Sailing vessel. MMSI: 235081804.

Date/timePositionNaut miles runAvg speedWind from/ knotsBaromVisibWave heightAir tempDewpointWater temp
2018-Jun-11 16:13N 39°34' E 002°38'0 0.0
2018-Jun-11 15:55N 39°34' E 002°38'0 0.0
2018-Jun-11 15:28N 39°34' E 002°38'0 0.0
2018-Jun-11 14:58N 39°34' E 002°38'0 0.0
2018-Jun-11 14:28N 39°34' E 002°38'0 0.0
2018-Jun-11 13:58N 39°34' E 002°38'0 0.0
2018-Jun-11 13:28N 39°34' E 002°38'0 0.0
2018-Jun-11 12:58N 39°34' E 002°38'0 0.0
2018-Jun-11 12:28N 39°34' E 002°38'0 0.0
2018-Jun-11 11:58N 39°34' E 002°38'0 0.0
2018-Jun-11 11:29N 39°34' E 002°38'0 0.0
2018-Jun-11 10:59N 39°34' E 002°38'0 0.0
2018-Jun-11 10:29N 39°34' E 002°38'0 0.0
2018-Jun-11 09:59N 39°34' E 002°38'0 0.0
2018-Jun-11 09:26N 39°34' E 002°38'0 0.0
2018-Jun-11 08:59N 39°34' E 002°38'0 0.0
2018-Jun-11 08:29N 39°34' E 002°38'0 0.0
2018-Jun-11 07:56N 39°34' E 002°38'0 0.0
2018-Jun-11 07:21N 39°34' E 002°38'0 0.0
2018-Jun-11 06:58N 39°34' E 002°38'0 0.0
2018-Jun-11 06:28N 39°34' E 002°38'0 0.0
2018-Jun-11 05:58N 39°34' E 002°38'0 0.0
2018-Jun-11 05:28N 39°34' E 002°38'0 0.0
2018-Jun-11 04:58N 39°34' E 002°38'0 0.0
2018-Jun-11 04:28N 39°34' E 002°38'0 0.0
2018-Jun-11 03:58N 39°34' E 002°38'0 0.0
2018-Jun-11 03:28N 39°34' E 002°38'0 0.0
2018-Jun-11 02:58N 39°34' E 002°38'0 0.0
2018-Jun-11 02:28N 39°34' E 002°38'0 0.0
2018-Jun-11 01:59N 39°34' E 002°38'0 0.0
2018-Jun-11 01:29N 39°34' E 002°38'0 0.0
2018-Jun-11 00:59N 39°34' E 002°38'0 0.0
2018-Jun-11 00:29N 39°34' E 002°38'0 0.0
2018-Jun-10 23:59N 39°34' E 002°38'0 0.0
2018-Jun-10 23:29N 39°34' E 002°38'0 0.0
2018-Jun-10 22:59N 39°34' E 002°38'0 0.0
2018-Jun-10 22:29N 39°34' E 002°38'0 0.0
2018-Jun-10 22:00N 39°34' E 002°38'1 1.9
2018-Jun-10 21:30N 39°33' E 002°39'4 9.0
2018-Jun-10 21:00N 39°29' E 002°42'4 9.0
2018-Jun-10 20:30N 39°25' E 002°44'1 0.0
2018-Jun-09 09:40N 39°24' E 002°44'1 7.8
2018-Jun-09 09:29N 39°26' E 002°43'4 8.2
2018-Jun-09 09:00N 39°29' E 002°41'4 7.8
2018-Jun-09 08:29N 39°33' E 002°39'1 2.3
2018-Jun-09 07:59N 39°34' E 002°38'0 0.0
2018-Jun-09 07:29N 39°34' E 002°38'0 0.0
2018-Jun-09 06:59N 39°34' E 002°38'0 0.0
2018-Jun-09 06:29N 39°34' E 002°38'0 0.0
2018-Jun-09 05:59N 39°34' E 002°38'0 0.0
2018-Jun-09 05:29N 39°34' E 002°38'0 0.0
2018-Jun-09 04:59N 39°34' E 002°38'0 0.0
2018-Jun-09 04:29N 39°34' E 002°38'0 0.0
2018-Jun-09 03:59N 39°34' E 002°38'0 0.0
2018-Jun-09 03:29N 39°34' E 002°38'0 0.0
2018-Jun-09 02:59N 39°34' E 002°38'0 0.0
2018-Jun-09 02:29N 39°34' E 002°38'0 0.0
2018-Jun-09 01:59N 39°34' E 002°38'0 0.0
2018-Jun-09 01:29N 39°34' E 002°38'0 0.0
2018-Jun-09 00:59N 39°34' E 002°38'0 0.0
2018-Jun-09 00:29N 39°34' E 002°38'0 0.0
2018-Jun-08 23:59N 39°34' E 002°38'0 0.0
2018-Jun-08 23:29N 39°34' E 002°38'0 0.0
2018-Jun-08 22:59N 39°34' E 002°38'0 0.0
2018-Jun-08 22:29N 39°34' E 002°38'0 0.0
2018-Jun-08 21:59N 39°34' E 002°38'0 0.0
2018-Jun-08 21:29N 39°34' E 002°38'0 0.0
2018-Jun-08 20:53N 39°34' E 002°38'0 0.0
2018-Jun-08 20:29N 39°34' E 002°38'0 0.0
2018-Jun-08 19:59N 39°34' E 002°38'0 0.0
2018-Jun-08 19:29N 39°34' E 002°38'0 0.0
2018-Jun-08 18:59N 39°34' E 002°38'0 0.0
2018-Jun-08 18:29N 39°34' E 002°38'0 0.0
2018-Jun-08 18:00N 39°34' E 002°38'0 0.0
2018-Jun-08 17:30N 39°34' E 002°38'0 0.0
2018-Jun-08 17:00N 39°34' E 002°38'0 0.0
2018-Jun-08 16:30N 39°34' E 002°38'0 0.0
2018-Jun-08 16:00N 39°34' E 002°38'0 0.0
2018-Jun-08 15:30N 39°34' E 002°38'0 0.0
2018-Jun-08 15:00N 39°34' E 002°38'0 0.0
2018-Jun-08 14:30N 39°34' E 002°38'0 0.0
2018-Jun-08 14:00N 39°34' E 002°38'0 0.0
2018-Jun-08 13:30N 39°34' E 002°38'0 0.0
2018-Jun-08 13:00N 39°34' E 002°38'0 0.0
2018-Jun-08 12:30N 39°34' E 002°38'0 0.0
2018-Jun-08 12:00N 39°34' E 002°38'0 0.0
2018-Jun-08 11:30N 39°34' E 002°38'0 0.0
2018-Jun-08 11:00N 39°34' E 002°38'0 0.0
2018-Jun-08 10:30N 39°34' E 002°38'0 0.0
2018-Jun-08 10:00N 39°34' E 002°38'0 0.0
2018-Jun-08 09:30N 39°34' E 002°38'0 0.0
2018-Jun-08 08:58N 39°34' E 002°38'0 0.0
2018-Jun-08 08:28N 39°34' E 002°38'0 0.0
2018-Jun-08 07:58N 39°34' E 002°38'0 0.0
2018-Jun-08 07:28N 39°34' E 002°38'0 0.0
2018-Jun-08 06:58N 39°34' E 002°38'0 0.0
2018-Jun-08 06:28N 39°34' E 002°38'0 0.0
2018-Jun-08 05:58N 39°34' E 002°38'0 0.0
2018-Jun-08 05:28N 39°34' E 002°38'0 0.0
2018-Jun-08 04:58N 39°34' E 002°38'0 0.0
2018-Jun-08 04:28N 39°34' E 002°38'0 0.0
2018-Jun-08 03:58N 39°34' E 002°38'0 0.0
2018-Jun-08 03:28N 39°34' E 002°38'0 0.0
2018-Jun-08 02:58N 39°34' E 002°38'0 0.0
2018-Jun-08 02:28N 39°34' E 002°38'0 0.0
2018-Jun-08 01:58N 39°34' E 002°38'0 0.0
2018-Jun-08 01:22N 39°34' E 002°38'0 0.0
2018-Jun-08 00:58N 39°34' E 002°38'0 0.0
2018-Jun-08 00:28N 39°34' E 002°38'0 0.0
2018-Jun-07 23:55N 39°34' E 002°38'0 0.0
2018-Jun-07 23:28N 39°34' E 002°38'0 0.0
2018-Jun-07 22:58N 39°34' E 002°38'0 0.0
2018-Jun-07 22:28N 39°34' E 002°38'0 0.0
2018-Jun-07 21:58N 39°34' E 002°38'0 0.0
2018-Jun-07 21:28N 39°34' E 002°38'0 0.0
2018-Jun-07 20:55N 39°34' E 002°38'0 0.0
2018-Jun-07 20:28N 39°34' E 002°38'0 0.0
2018-Jun-07 19:58N 39°34' E 002°38'0 0.0
2018-Jun-07 19:28N 39°34' E 002°38'0 0.0
2018-Jun-07 18:58N 39°34' E 002°38'0 0.0
2018-Jun-07 18:28N 39°34' E 002°38'0 0.0
2018-Jun-07 17:58N 39°34' E 002°38'0 0.0
2018-Jun-07 17:28N 39°34' E 002°38'0 0.0
2018-Jun-07 16:58N 39°34' E 002°38'0 0.0
2018-Jun-07 16:28N 39°34' E 002°38'0 0.0
2018-Jun-07 15:58N 39°34' E 002°38'0 0.0
2018-Jun-07 15:28N 39°34' E 002°38'0 0.0
2018-Jun-07 15:00N 39°34' E 002°38'1 1.6
2018-Jun-07 14:30N 39°33' E 002°39'0 0.7
2018-Jun-07 14:00N 39°33' E 002°39'1 2.0
2018-Jun-07 13:30N 39°34' E 002°38'0 0.3
2018-Jun-07 12:59N 39°34' E 002°38'0 0.0
2018-Jun-07 12:30N 39°34' E 002°38'0 0.0
2018-Jun-07 12:00N 39°34' E 002°38'0 0.0
2018-Jun-07 11:30N 39°34' E 002°38'0 0.0
2018-Jun-07 11:00N 39°34' E 002°38'0 0.0
2018-Jun-07 10:30N 39°34' E 002°38'0 0.0
2018-Jun-07 09:59N 39°34' E 002°38'0 0.0
2018-Jun-07 09:26N 39°34' E 002°38'0 0.0
2018-Jun-07 08:59N 39°34' E 002°38'0 0.1
2018-Jun-07 08:30N 39°34' E 002°38'3 5.9
2018-Jun-07 08:00N 39°31' E 002°40'1 1.5
2018-Jun-07 07:30N 39°32' E 002°39'2 4.2
2018-Jun-07 06:58N 39°34' E 002°38'0 0.0
2018-Jun-07 06:28N 39°34' E 002°38'0 0.0
2018-Jun-06 15:55N 39°34' E 002°38'0 0.0
2018-Jun-06 15:28N 39°34' E 002°38'0 0.0
2018-Jun-06 14:58N 39°34' E 002°38'0 0.0
2018-Jun-06 14:28N 39°34' E 002°38'0 0.0
2018-Jun-06 13:58N 39°34' E 002°38'0 0.0
2018-Jun-06 13:28N 39°34' E 002°38'0 0.0
2018-Jun-06 12:58N 39°34' E 002°38'0 0.0
2018-Jun-06 12:28N 39°34' E 002°38'0 0.0
2018-Jun-06 11:58N 39°34' E 002°38'0 0.0
2018-Jun-06 11:28N 39°34' E 002°38'0 0.0
2018-Jun-06 10:58N 39°34' E 002°38'0 0.0
2018-Jun-06 10:28N 39°34' E 002°38'0 0.0
2018-Jun-06 09:58N 39°34' E 002°38'0 0.0
2018-Jun-06 09:28N 39°34' E 002°38'0 0.0
2018-Jun-06 08:55N 39°34' E 002°38'0 0.0
2018-Jun-06 08:28N 39°34' E 002°38'0 0.0
2018-Jun-06 07:58N 39°34' E 002°38'0 0.0
2018-Jun-06 07:28N 39°34' E 002°38'0 0.0
2018-Jun-06 06:58N 39°34' E 002°38'0 0.0
2018-Jun-06 06:28N 39°34' E 002°38'0 0.0
2018-Jun-05 14:34N 39°34' E 002°38'0 0.0
2018-Jun-05 14:28N 39°34' E 002°38'0 0.0
2018-Jun-05 13:58N 39°34' E 002°38'0 0.0
2018-Jun-05 13:28N 39°34' E 002°38'0 0.0
2018-Jun-05 12:58N 39°34' E 002°38'0 0.0
2018-Jun-05 12:28N 39°34' E 002°38'0 0.0
2018-Jun-05 11:58N 39°34' E 002°38'0 0.0
2018-Jun-05 11:28N 39°34' E 002°38'0 0.0
2018-Jun-05 10:58N 39°34' E 002°38'0 0.0
2018-Jun-05 10:28N 39°34' E 002°38'0 0.0
2018-Jun-05 09:58N 39°34' E 002°38'0 0.0
2018-Jun-05 09:28N 39°34' E 002°38'0 0.0
2018-Jun-05 09:00N 39°34' E 002°38'0 0.0
2018-Jun-05 08:30N 39°34' E 002°38'0 0.0
2018-Jun-05 08:00N 39°34' E 002°38'0 0.0
2018-Jun-05 07:30N 39°34' E 002°38'0 0.0
2018-Jun-05 07:00N 39°34' E 002°38'0 0.0
2018-Jun-05 06:29N 39°34' E 002°38'0 0.0
2018-Jun-04 14:25N 39°34' E 002°38'0 0.0
2018-Jun-04 13:58N 39°34' E 002°38'0 0.0
2018-Jun-04 13:28N 39°34' E 002°38'0 0.0
2018-Jun-04 12:58N 39°34' E 002°38'0 0.0
2018-Jun-04 12:28N 39°34' E 002°38'0 0.0
2018-Jun-04 11:58N 39°34' E 002°38'0 0.0
2018-Jun-04 11:28N 39°34' E 002°38'0 0.0
2018-Jun-04 10:58N 39°34' E 002°38'0 0.0
2018-Jun-04 10:28N 39°34' E 002°38'0 0.0
2018-Jun-04 09:58N 39°34' E 002°38'0 0.0
2018-Jun-04 09:28N 39°34' E 002°38'0 0.0
2018-Jun-04 08:58N 39°34' E 002°38'0 0.0
2018-Jun-04 08:28N 39°34' E 002°38'0 0.0
2018-Jun-04 07:58N 39°34' E 002°38'0 0.0
2018-Jun-04 07:28N 39°34' E 002°38'0 0.0
2018-Jun-04 06:58N 39°34' E 002°38'0 0.0
2018-Jun-04 06:28N 39°34' E 002°38'  
Track history (hours):
 
Tides and Currents Weather Stations Pressure Air Temp Water Temp Dewpoint Dewpoint Depression Visibility Wind Speed Wind Dir Waves Ship Positions

Tilakkhana

Last reported at 2018-Jun-11 16:13 UTC. Time now 2018-Jun-25 17:44 UTC.
Position N 39°34' E 002°38'.
Warning: this ship's position is 14 days out of date.

Length 24 m.

Type: Sailing vessel. MMSI: 235081804.

Date/timePositionNaut miles runAvg speedWind from/ knotsBaromVisibWave heightAir tempDewpointWater temp
2018-Jun-11 16:13N 39°34' E 002°38'0 0.0
2018-Jun-11 15:55N 39°34' E 002°38'0 0.0
2018-Jun-11 15:28N 39°34' E 002°38'0 0.0
2018-Jun-11 14:58N 39°34' E 002°38'0 0.0
2018-Jun-11 14:28N 39°34' E 002°38'0 0.0
2018-Jun-11 13:58N 39°34' E 002°38'0 0.0
2018-Jun-11 13:28N 39°34' E 002°38'0 0.0
2018-Jun-11 12:58N 39°34' E 002°38'0 0.0
2018-Jun-11 12:28N 39°34' E 002°38'0 0.0
2018-Jun-11 11:58N 39°34' E 002°38'0 0.0
2018-Jun-11 11:29N 39°34' E 002°38'0 0.0
2018-Jun-11 10:59N 39°34' E 002°38'0 0.0
2018-Jun-11 10:29N 39°34' E 002°38'0 0.0
2018-Jun-11 09:59N 39°34' E 002°38'0 0.0
2018-Jun-11 09:26N 39°34' E 002°38'0 0.0
2018-Jun-11 08:59N 39°34' E 002°38'0 0.0
2018-Jun-11 08:29N 39°34' E 002°38'0 0.0
2018-Jun-11 07:56N 39°34' E 002°38'0 0.0
2018-Jun-11 07:21N 39°34' E 002°38'0 0.0
2018-Jun-11 06:58N 39°34' E 002°38'0 0.0
2018-Jun-11 06:28N 39°34' E 002°38'0 0.0
2018-Jun-11 05:58N 39°34' E 002°38'0 0.0
2018-Jun-11 05:28N 39°34' E 002°38'0 0.0
2018-Jun-11 04:58N 39°34' E 002°38'0 0.0
2018-Jun-11 04:28N 39°34' E 002°38'0 0.0
2018-Jun-11 03:58N 39°34' E 002°38'0 0.0
2018-Jun-11 03:28N 39°34' E 002°38'0 0.0
2018-Jun-11 02:58N 39°34' E 002°38'0 0.0
2018-Jun-11 02:28N 39°34' E 002°38'0 0.0
2018-Jun-11 01:59N 39°34' E 002°38'0 0.0
2018-Jun-11 01:29N 39°34' E 002°38'0 0.0
2018-Jun-11 00:59N 39°34' E 002°38'0 0.0
2018-Jun-11 00:29N 39°34' E 002°38'0 0.0
2018-Jun-10 23:59N 39°34' E 002°38'0 0.0
2018-Jun-10 23:29N 39°34' E 002°38'0 0.0
2018-Jun-10 22:59N 39°34' E 002°38'0 0.0
2018-Jun-10 22:29N 39°34' E 002°38'0 0.0
2018-Jun-10 22:00N 39°34' E 002°38'1 1.9
2018-Jun-10 21:30N 39°33' E 002°39'4 9.0
2018-Jun-10 21:00N 39°29' E 002°42'4 9.0
2018-Jun-10 20:30N 39°25' E 002°44'1 0.0
2018-Jun-09 09:40N 39°24' E 002°44'1 7.8
2018-Jun-09 09:29N 39°26' E 002°43'4 8.2
2018-Jun-09 09:00N 39°29' E 002°41'4 7.8
2018-Jun-09 08:29N 39°33' E 002°39'1 2.3
2018-Jun-09 07:59N 39°34' E 002°38'0 0.0
2018-Jun-09 07:29N 39°34' E 002°38'0 0.0
2018-Jun-09 06:59N 39°34' E 002°38'0 0.0
2018-Jun-09 06:29N 39°34' E 002°38'0 0.0
2018-Jun-09 05:59N 39°34' E 002°38'0 0.0
2018-Jun-09 05:29N 39°34' E 002°38'0 0.0
2018-Jun-09 04:59N 39°34' E 002°38'0 0.0
2018-Jun-09 04:29N 39°34' E 002°38'0 0.0
2018-Jun-09 03:59N 39°34' E 002°38'0 0.0
2018-Jun-09 03:29N 39°34' E 002°38'0 0.0
2018-Jun-09 02:59N 39°34' E 002°38'0 0.0
2018-Jun-09 02:29N 39°34' E 002°38'0 0.0
2018-Jun-09 01:59N 39°34' E 002°38'0 0.0
2018-Jun-09 01:29N 39°34' E 002°38'0 0.0
2018-Jun-09 00:59N 39°34' E 002°38'0 0.0
2018-Jun-09 00:29N 39°34' E 002°38'0 0.0
2018-Jun-08 23:59N 39°34' E 002°38'0 0.0
2018-Jun-08 23:29N 39°34' E 002°38'0 0.0
2018-Jun-08 22:59N 39°34' E 002°38'0 0.0
2018-Jun-08 22:29N 39°34' E 002°38'0 0.0
2018-Jun-08 21:59N 39°34' E 002°38'0 0.0
2018-Jun-08 21:29N 39°34' E 002°38'0 0.0
2018-Jun-08 20:53N 39°34' E 002°38'0 0.0
2018-Jun-08 20:29N 39°34' E 002°38'0 0.0
2018-Jun-08 19:59N 39°34' E 002°38'0 0.0
2018-Jun-08 19:29N 39°34' E 002°38'0 0.0
2018-Jun-08 18:59N 39°34' E 002°38'0 0.0
2018-Jun-08 18:29N 39°34' E 002°38'0 0.0
2018-Jun-08 18:00N 39°34' E 002°38'0 0.0
2018-Jun-08 17:30N 39°34' E 002°38'0 0.0
2018-Jun-08 17:00N 39°34' E 002°38'0 0.0
2018-Jun-08 16:30N 39°34' E 002°38'0 0.0
2018-Jun-08 16:00N 39°34' E 002°38'0 0.0
2018-Jun-08 15:30N 39°34' E 002°38'0 0.0
2018-Jun-08 15:00N 39°34' E 002°38'0 0.0
2018-Jun-08 14:30N 39°34' E 002°38'0 0.0
2018-Jun-08 14:00N 39°34' E 002°38'0 0.0
2018-Jun-08 13:30N 39°34' E 002°38'0 0.0
2018-Jun-08 13:00N 39°34' E 002°38'0 0.0
2018-Jun-08 12:30N 39°34' E 002°38'0 0.0
2018-Jun-08 12:00N 39°34' E 002°38'0 0.0
2018-Jun-08 11:30N 39°34' E 002°38'0 0.0
2018-Jun-08 11:00N 39°34' E 002°38'0 0.0
2018-Jun-08 10:30N 39°34' E 002°38'0 0.0
2018-Jun-08 10:00N 39°34' E 002°38'0 0.0
2018-Jun-08 09:30N 39°34' E 002°38'0 0.0
2018-Jun-08 08:58N 39°34' E 002°38'0 0.0
2018-Jun-08 08:28N 39°34' E 002°38'0 0.0
2018-Jun-08 07:58N 39°34' E 002°38'0 0.0
2018-Jun-08 07:28N 39°34' E 002°38'0 0.0
2018-Jun-08 06:58N 39°34' E 002°38'0 0.0
2018-Jun-08 06:28N 39°34' E 002°38'0 0.0
2018-Jun-08 05:58N 39°34' E 002°38'0 0.0
2018-Jun-08 05:28N 39°34' E 002°38'0 0.0
2018-Jun-08 04:58N 39°34' E 002°38'0 0.0
2018-Jun-08 04:28N 39°34' E 002°38'0 0.0
2018-Jun-08 03:58N 39°34' E 002°38'0 0.0
2018-Jun-08 03:28N 39°34' E 002°38'0 0.0
2018-Jun-08 02:58N 39°34' E 002°38'0 0.0
2018-Jun-08 02:28N 39°34' E 002°38'0 0.0
2018-Jun-08 01:58N 39°34' E 002°38'0 0.0
2018-Jun-08 01:22N 39°34' E 002°38'0 0.0
2018-Jun-08 00:58N 39°34' E 002°38'0 0.0
2018-Jun-08 00:28N 39°34' E 002°38'0 0.0
2018-Jun-07 23:55N 39°34' E 002°38'0 0.0
2018-Jun-07 23:28N 39°34' E 002°38'0 0.0
2018-Jun-07 22:58N 39°34' E 002°38'0 0.0
2018-Jun-07 22:28N 39°34' E 002°38'0 0.0
2018-Jun-07 21:58N 39°34' E 002°38'0 0.0
2018-Jun-07 21:28N 39°34' E 002°38'0 0.0
2018-Jun-07 20:55N 39°34' E 002°38'0 0.0
2018-Jun-07 20:28N 39°34' E 002°38'0 0.0
2018-Jun-07 19:58N 39°34' E 002°38'0 0.0
2018-Jun-07 19:28N 39°34' E 002°38'0 0.0
2018-Jun-07 18:58N 39°34' E 002°38'0 0.0
2018-Jun-07 18:28N 39°34' E 002°38'0 0.0
2018-Jun-07 17:58N 39°34' E 002°38'0 0.0
2018-Jun-07 17:28N 39°34' E 002°38'0 0.0
2018-Jun-07 16:58N 39°34' E 002°38'0 0.0
2018-Jun-07 16:28N 39°34' E 002°38'0 0.0
2018-Jun-07 15:58N 39°34' E 002°38'0 0.0
2018-Jun-07 15:28N 39°34' E 002°38'0 0.0
2018-Jun-07 15:00N 39°34' E 002°38'1 1.6
2018-Jun-07 14:30N 39°33' E 002°39'0 0.7
2018-Jun-07 14:00N 39°33' E 002°39'1 2.0
2018-Jun-07 13:30N 39°34' E 002°38'0 0.3
2018-Jun-07 12:59N 39°34' E 002°38'0 0.0
2018-Jun-07 12:30N 39°34' E 002°38'0 0.0
2018-Jun-07 12:00N 39°34' E 002°38'0 0.0
2018-Jun-07 11:30N 39°34' E 002°38'0 0.0
2018-Jun-07 11:00N 39°34' E 002°38'0 0.0
2018-Jun-07 10:30N 39°34' E 002°38'0 0.0
2018-Jun-07 09:59N 39°34' E 002°38'0 0.0
2018-Jun-07 09:26N 39°34' E 002°38'0 0.0
2018-Jun-07 08:59N 39°34' E 002°38'0 0.1
2018-Jun-07 08:30N 39°34' E 002°38'3 5.9
2018-Jun-07 08:00N 39°31' E 002°40'1 1.5
2018-Jun-07 07:30N 39°32' E 002°39'2 4.2
2018-Jun-07 06:58N 39°34' E 002°38'0 0.0
2018-Jun-07 06:28N 39°34' E 002°38'0 0.0
2018-Jun-06 15:55N 39°34' E 002°38'0 0.0
2018-Jun-06 15:28N 39°34' E 002°38'0 0.0
2018-Jun-06 14:58N 39°34' E 002°38'0 0.0
2018-Jun-06 14:28N 39°34' E 002°38'0 0.0
2018-Jun-06 13:58N 39°34' E 002°38'0 0.0
2018-Jun-06 13:28N 39°34' E 002°38'0 0.0
2018-Jun-06 12:58N 39°34' E 002°38'0 0.0
2018-Jun-06 12:28N 39°34' E 002°38'0 0.0
2018-Jun-06 11:58N 39°34' E 002°38'0 0.0
2018-Jun-06 11:28N 39°34' E 002°38'0 0.0
2018-Jun-06 10:58N 39°34' E 002°38'0 0.0
2018-Jun-06 10:28N 39°34' E 002°38'0 0.0
2018-Jun-06 09:58N 39°34' E 002°38'0 0.0
2018-Jun-06 09:28N 39°34' E 002°38'0 0.0
2018-Jun-06 08:55N 39°34' E 002°38'0 0.0
2018-Jun-06 08:28N 39°34' E 002°38'0 0.0
2018-Jun-06 07:58N 39°34' E 002°38'0 0.0
2018-Jun-06 07:28N 39°34' E 002°38'0 0.0
2018-Jun-06 06:58N 39°34' E 002°38'0 0.0
2018-Jun-06 06:28N 39°34' E 002°38'0 0.0
2018-Jun-05 14:34N 39°34' E 002°38'0 0.0
2018-Jun-05 14:28N 39°34' E 002°38'0 0.0
2018-Jun-05 13:58N 39°34' E 002°38'0 0.0
2018-Jun-05 13:28N 39°34' E 002°38'0 0.0
2018-Jun-05 12:58N 39°34' E 002°38'0 0.0
2018-Jun-05 12:28N 39°34' E 002°38'0 0.0
2018-Jun-05 11:58N 39°34' E 002°38'0 0.0
2018-Jun-05 11:28N 39°34' E 002°38'0 0.0
2018-Jun-05 10:58N 39°34' E 002°38'0 0.0
2018-Jun-05 10:28N 39°34' E 002°38'0 0.0
2018-Jun-05 09:58N 39°34' E 002°38'0 0.0
2018-Jun-05 09:28N 39°34' E 002°38'0 0.0
2018-Jun-05 09:00N 39°34' E 002°38'0 0.0
2018-Jun-05 08:30N 39°34' E 002°38'0 0.0
2018-Jun-05 08:00N 39°34' E 002°38'0 0.0
2018-Jun-05 07:30N 39°34' E 002°38'0 0.0
2018-Jun-05 07:00N 39°34' E 002°38'0 0.0
2018-Jun-05 06:29N 39°34' E 002°38'0 0.0
2018-Jun-04 14:25N 39°34' E 002°38'0 0.0
2018-Jun-04 13:58N 39°34' E 002°38'0 0.0
2018-Jun-04 13:28N 39°34' E 002°38'0 0.0
2018-Jun-04 12:58N 39°34' E 002°38'0 0.0
2018-Jun-04 12:28N 39°34' E 002°38'0 0.0
2018-Jun-04 11:58N 39°34' E 002°38'0 0.0
2018-Jun-04 11:28N 39°34' E 002°38'0 0.0
2018-Jun-04 10:58N 39°34' E 002°38'0 0.0
2018-Jun-04 10:28N 39°34' E 002°38'0 0.0
2018-Jun-04 09:58N 39°34' E 002°38'0 0.0
2018-Jun-04 09:28N 39°34' E 002°38'0 0.0
2018-Jun-04 08:58N 39°34' E 002°38'0 0.0
2018-Jun-04 08:28N 39°34' E 002°38'0 0.0
2018-Jun-04 07:58N 39°34' E 002°38'0 0.0
2018-Jun-04 07:28N 39°34' E 002°38'0 0.0
2018-Jun-04 06:58N 39°34' E 002°38'0 0.0
2018-Jun-04 06:28N 39°34' E 002°38'  

Dump ship's entire track history